Mount Lemmon, Arizona
Current Conditions -  °F | °C
As of 5:58 AM on Thursday 18 Dec 2014 (Local Time) from KDMA Reporting Station
Clear Clear  
Wind Chill: 45°   Ceiling: Unl
Heat Index: 47°   Visibility: 10mi
Dew Point: 47°   Wind: 5mph
Humidity: 100%   Direction: 130°SE
Pressure: 30.09"   Gusts: NA
Location:  32.45°N, 110.74°W
Report Text: KDMA 181258Z AUTO 13004KT 10SM CLR 08/08 A3009 RMK AO2 SLP179 T00830083 $
Loading
Personal Weather Stations






























Interactive Weather Map New forecast layout! Learn more

10-Day Weather Forecast

Advertisements
Track Severe Weather on mobile